createdAt,value
2022-07-29T00:00:24.607Z,1.20
2022-07-29T00:02:52.618Z,1.20
2022-07-29T00:05:20.686Z,1.27
2022-07-29T00:07:48.652Z,1.20
2022-07-29T00:10:18.281Z,1.30
2022-07-29T00:12:46.309Z,1.17
2022-07-29T00:15:15.203Z,1.17
2022-07-29T00:17:43.337Z,1.35
2022-07-29T00:20:12.148Z,1.50
2022-07-29T00:22:40.782Z,1.13
2022-07-29T00:25:09.799Z,1.20
2022-07-29T00:27:39.206Z,1.10
2022-07-29T00:30:09.164Z,1.35
2022-07-29T00:32:37.257Z,1.40
2022-07-29T00:35:23.632Z,1.02
2022-07-29T00:37:51.766Z,1.23
2022-07-29T00:40:19.694Z,1.40
2022-07-29T00:42:54.630Z,1.20
2022-07-29T00:45:23.151Z,1.30
2022-07-29T00:47:51.252Z,1.10
2022-07-29T00:50:20.017Z,1.40
2022-07-29T00:52:48.371Z,1.33
2022-07-29T00:55:18.118Z,1.50
2022-07-29T00:57:46.997Z,1.10
2022-07-29T01:00:19.891Z,1.13
2022-07-29T01:02:49.524Z,1.52
2022-07-29T01:05:20.336Z,1.20
2022-07-29T01:07:50.364Z,1.23
2022-07-29T01:10:20.378Z,1.10
2022-07-29T01:12:52.088Z,1.30
2022-07-29T01:15:22.283Z,1.48
2022-07-29T01:17:59.457Z,1.45
2022-07-29T01:20:35.580Z,1.20
2022-07-29T01:23:39.935Z,1.40
2022-07-29T01:26:34.167Z,1.50
2022-07-29T01:29:13.394Z,1.50
2022-07-29T01:31:58.712Z,1.35
2022-07-29T01:34:37.051Z,1.65
2022-07-29T01:37:11.808Z,1.88
2022-07-29T01:39:41.633Z,1.85
2022-07-29T01:42:16.770Z,2.10
2022-07-29T01:44:52.667Z,1.90
2022-07-29T01:47:25.440Z,2.08
2022-07-29T01:49:56.894Z,2.13
2022-07-29T01:52:32.082Z,2.25
2022-07-29T01:55:05.592Z,1.90
2022-07-29T01:57:35.922Z,1.70
2022-07-29T02:00:06.653Z,1.35
2022-07-29T02:02:41.369Z,1.70
2022-07-29T02:05:13.011Z,1.35
2022-07-29T02:07:42.955Z,1.30
2022-07-29T02:10:12.620Z,1.30
2022-07-29T02:12:43.133Z,1.30
2022-07-29T02:15:19.204Z,1.33
2022-07-29T02:17:52.137Z,1.75
2022-07-29T02:20:21.344Z,1.35
2022-07-29T02:22:51.948Z,1.20
2022-07-29T02:25:20.717Z,1.70
2022-07-29T02:27:50.432Z,1.20
2022-07-29T02:30:20.486Z,1.48
2022-07-29T02:32:50.513Z,1.33
2022-07-29T02:35:19.218Z,1.33
2022-07-29T02:38:09.186Z,1.30
2022-07-29T02:40:40.390Z,1.20
2022-07-29T02:43:10.988Z,1.45
2022-07-29T02:45:41.000Z,1.10
2022-07-29T02:48:15.366Z,1.50
2022-07-29T02:50:50.817Z,1.35
2022-07-29T02:53:22.213Z,1.50
2022-07-29T02:55:55.850Z,1.40
2022-07-29T02:58:29.617Z,1.60
2022-07-29T03:01:01.785Z,2.00
2022-07-29T03:03:32.248Z,2.40
2022-07-29T03:06:03.258Z,1.90
2022-07-29T03:08:33.085Z,2.10
2022-07-29T03:11:02.733Z,2.20
2022-07-29T03:13:32.600Z,1.63
2022-07-29T03:16:02.776Z,1.98
2022-07-29T03:18:31.131Z,2.03
2022-07-29T03:20:59.342Z,1.77
2022-07-29T03:23:28.913Z,1.60
2022-07-29T03:26:03.371Z,1.58
2022-07-29T03:28:31.888Z,1.40
2022-07-29T03:31:02.452Z,1.42
2022-07-29T03:33:31.388Z,1.52
2022-07-29T03:35:59.439Z,1.67
2022-07-29T03:38:31.424Z,1.60
2022-07-29T03:41:03.631Z,1.50
2022-07-29T03:43:34.142Z,1.38
2022-07-29T03:46:05.909Z,1.55
2022-07-29T03:48:39.250Z,1.23
2022-07-29T03:51:08.349Z,1.20
2022-07-29T03:53:37.613Z,1.30
2022-07-29T03:56:08.155Z,1.20
2022-07-29T03:58:37.481Z,1.40
2022-07-29T04:01:06.949Z,1.48
2022-07-29T04:03:35.858Z,1.30
2022-07-29T04:06:07.258Z,1.48
2022-07-29T04:08:36.190Z,1.38
2022-07-29T04:11:05.109Z,1.52
2022-07-29T04:13:33.305Z,1.77
2022-07-29T04:16:01.431Z,1.67
2022-07-29T04:18:30.794Z,1.52
2022-07-29T04:21:01.737Z,1.73
2022-07-29T04:23:33.469Z,1.55
2022-07-29T04:26:02.478Z,1.60
2022-07-29T04:28:30.552Z,1.60
2022-07-29T04:30:58.617Z,1.92
2022-07-29T04:33:27.107Z,1.65
2022-07-29T04:35:56.467Z,1.55
2022-07-29T04:38:24.483Z,1.70
2022-07-29T04:40:52.472Z,1.60
2022-07-29T04:43:23.163Z,1.50
2022-07-29T04:45:51.825Z,1.50
2022-07-29T04:48:21.223Z,1.48
2022-07-29T04:50:52.051Z,1.65
2022-07-29T04:53:21.364Z,1.60
2022-07-29T04:55:49.449Z,1.75
2022-07-29T04:58:17.589Z,1.50
2022-07-29T05:00:46.018Z,1.60
2022-07-29T05:03:16.256Z,1.92
2022-07-29T05:05:44.513Z,1.42
2022-07-29T05:08:12.614Z,1.75
2022-07-29T05:10:42.126Z,1.88
2022-07-29T05:13:10.164Z,1.40
2022-07-29T05:15:38.780Z,1.65
2022-07-29T05:18:07.121Z,1.60
2022-07-29T05:20:35.674Z,2.00
2022-07-29T05:23:04.518Z,1.60
2022-07-29T05:25:43.631Z,1.80
2022-07-29T05:28:14.810Z,1.65
2022-07-29T05:30:43.255Z,1.85
2022-07-29T05:33:35.671Z,1.83
2022-07-29T05:36:00.740Z,1.70
2022-07-29T05:38:29.281Z,1.63
2022-07-29T05:40:59.489Z,1.60
2022-07-29T05:43:29.294Z,1.60
2022-07-29T05:45:57.837Z,1.70
2022-07-29T05:48:26.375Z,1.40
2022-07-29T05:50:54.990Z,1.85
2022-07-29T05:53:23.393Z,1.70
2022-07-29T05:55:52.841Z,1.70
2022-07-29T05:58:21.004Z,1.55
2022-07-29T06:00:50.361Z,1.70
2022-07-29T06:03:18.387Z,1.80
2022-07-29T06:05:46.449Z,1.77
2022-07-29T06:08:14.528Z,1.40
2022-07-29T06:10:42.514Z,1.63
2022-07-29T06:13:10.528Z,1.63
2022-07-29T06:15:38.535Z,1.40
2022-07-29T06:18:10.256Z,1.30
2022-07-29T06:23:07.206Z,1.30
2022-07-29T06:25:36.398Z,1.33
2022-07-29T06:28:04.897Z,1.67
2022-07-29T06:30:32.956Z,1.55
2022-07-29T06:33:01.384Z,1.88
2022-07-29T06:35:41.110Z,1.40
2022-07-29T06:38:33.980Z,1.27
2022-07-29T06:41:04.785Z,1.48
2022-07-29T06:43:45.584Z,1.73
2022-07-29T06:46:20.586Z,1.70
2022-07-29T06:48:49.755Z,1.42
2022-07-29T06:51:22.847Z,1.50
2022-07-29T06:53:59.822Z,1.42
2022-07-29T06:56:31.703Z,1.58
2022-07-29T06:58:59.841Z,1.70
2022-07-29T07:01:29.776Z,1.65
2022-07-29T07:03:57.813Z,1.67
2022-07-29T07:06:27.273Z,1.60
2022-07-29T07:08:55.170Z,1.52
2022-07-29T07:11:23.175Z,1.88
2022-07-29T07:13:51.236Z,1.73
2022-07-29T07:16:19.598Z,1.70
2022-07-29T07:18:47.714Z,1.90
2022-07-29T07:21:19.332Z,1.90
2022-07-29T07:23:49.036Z,1.97
2022-07-29T07:26:17.089Z,1.60
2022-07-29T07:28:45.312Z,1.52
2022-07-29T07:31:13.729Z,1.77
2022-07-29T07:33:41.876Z,1.80
2022-07-29T07:36:09.944Z,1.90
2022-07-29T07:38:38.082Z,1.95
2022-07-29T07:41:07.561Z,2.08
2022-07-29T07:43:35.764Z,2.15
2022-07-29T07:46:03.857Z,1.98
2022-07-29T07:48:31.866Z,2.00
2022-07-29T07:50:59.886Z,2.05
2022-07-29T07:53:28.011Z,1.88
2022-07-29T07:56:12.663Z,2.08
2022-07-29T07:58:42.506Z,2.10
2022-07-29T08:01:12.319Z,2.15
2022-07-29T08:03:40.475Z,2.42
2022-07-29T08:06:11.429Z,2.28
2022-07-29T08:08:39.416Z,2.40
2022-07-29T08:11:09.749Z,2.97
2022-07-29T08:13:40.217Z,2.50
2022-07-29T08:16:14.091Z,2.67
2022-07-29T08:18:43.470Z,2.40
2022-07-29T08:21:14.929Z,2.20
2022-07-29T08:23:54.545Z,2.50
2022-07-29T08:26:27.970Z,2.20
2022-07-29T08:28:56.156Z,2.20
2022-07-29T08:31:26.086Z,2.25
2022-07-29T08:33:54.098Z,2.08
2022-07-29T08:36:23.095Z,2.35
2022-07-29T08:38:51.918Z,2.20
2022-07-29T08:41:20.603Z,2.47
2022-07-29T08:43:48.841Z,2.17
2022-07-29T08:46:18.079Z,2.30
2022-07-29T08:48:48.223Z,2.25
2022-07-29T08:51:17.926Z,2.38
2022-07-29T08:53:48.380Z,2.28
2022-07-29T08:56:19.231Z,2.03
2022-07-29T08:58:51.944Z,2.20
2022-07-29T09:01:35.238Z,2.30
2022-07-29T09:04:11.185Z,2.47
2022-07-29T09:06:44.968Z,1.90
2022-07-29T09:09:14.580Z,1.95
2022-07-29T09:11:43.245Z,1.80
2022-07-29T09:14:14.027Z,2.20
2022-07-29T09:16:54.683Z,2.20
2022-07-29T09:19:32.472Z,1.92
2022-07-29T09:22:06.026Z,2.10
2022-07-29T09:24:42.727Z,2.28
2022-07-29T09:27:24.454Z,1.95
2022-07-29T09:30:03.137Z,2.28
2022-07-29T09:32:32.163Z,2.17
2022-07-29T09:35:23.136Z,2.00
2022-07-29T09:37:52.071Z,2.38
2022-07-29T09:40:22.999Z,2.17
2022-07-29T09:42:51.235Z,2.28
2022-07-29T09:45:30.615Z,2.20
2022-07-29T09:48:04.087Z,2.33
2022-07-29T09:50:45.864Z,2.17
2022-07-29T09:53:14.091Z,2.50
2022-07-29T09:55:51.661Z,2.10
2022-07-29T09:58:22.478Z,2.20
2022-07-29T10:00:52.852Z,2.13
2022-07-29T10:03:21.625Z,2.38
2022-07-29T10:06:06.980Z,2.03
2022-07-29T10:08:35.422Z,1.95
2022-07-29T10:11:12.210Z,2.10
2022-07-29T10:13:40.827Z,2.20
2022-07-29T10:16:09.366Z,1.88
2022-07-29T10:18:37.468Z,2.15
2022-07-29T10:21:08.108Z,2.15
2022-07-29T10:23:46.720Z,2.20
2022-07-29T10:26:15.624Z,2.13
2022-07-29T10:28:43.590Z,2.20
2022-07-29T10:31:21.528Z,2.30
2022-07-29T10:33:58.949Z,2.30
2022-07-29T10:36:50.488Z,2.38
2022-07-29T10:39:44.496Z,2.08
2022-07-29T10:42:19.974Z,2.03
2022-07-29T10:44:49.020Z,2.10
2022-07-29T10:47:24.726Z,2.20
2022-07-29T10:50:01.095Z,2.13
2022-07-29T10:53:00.995Z,2.10
2022-07-29T10:55:43.826Z,1.90
2022-07-29T10:58:17.976Z,2.30
2022-07-29T11:00:47.941Z,2.05
2022-07-29T11:03:50.322Z,2.20
2022-07-29T11:06:26.351Z,2.15
2022-07-29T11:12:48.897Z,2.30
2022-07-29T11:15:21.833Z,2.05
2022-07-29T11:18:15.134Z,2.13
2022-07-29T11:20:47.826Z,2.20
2022-07-29T11:23:24.945Z,1.80
2022-07-29T11:26:23.115Z,1.88
2022-07-29T11:29:00.197Z,1.80
2022-07-29T11:31:37.421Z,1.77
2022-07-29T11:34:20.852Z,2.13
2022-07-29T11:37:27.761Z,1.70
2022-07-29T11:40:18.408Z,1.75
2022-07-29T11:42:52.514Z,1.80
2022-07-29T11:45:43.164Z,1.95
2022-07-29T11:48:31.740Z,1.80
2022-07-29T11:51:03.013Z,1.90
2022-07-29T11:53:32.843Z,1.63
2022-07-29T11:58:52.415Z,1.60
2022-07-29T12:01:22.309Z,1.60
2022-07-29T12:04:04.192Z,1.90
2022-07-29T12:06:35.043Z,1.77
2022-07-29T12:09:14.636Z,1.80
2022-07-29T12:11:45.001Z,1.60
2022-07-29T12:14:30.391Z,1.42
2022-07-29T12:16:58.572Z,1.60
2022-07-29T12:19:27.086Z,1.90
2022-07-29T12:21:59.770Z,1.88
2022-07-29T12:24:45.235Z,2.25
2022-07-29T12:27:18.905Z,2.40
2022-07-29T12:30:00.687Z,2.53
2022-07-29T12:32:34.055Z,2.50
2022-07-29T12:35:05.565Z,2.63
2022-07-29T12:37:41.158Z,2.50
2022-07-29T12:40:12.580Z,2.15
2022-07-29T12:42:41.752Z,2.55
2022-07-29T12:45:11.982Z,2.28
2022-07-29T12:47:54.146Z,2.25
2022-07-29T12:50:26.254Z,2.20
2022-07-29T12:52:54.755Z,2.35
2022-07-29T12:55:40.466Z,2.75
2022-07-29T12:58:08.908Z,2.50
2022-07-29T13:00:38.533Z,2.47
2022-07-29T13:03:07.277Z,2.40
2022-07-29T13:05:48.700Z,2.65
2022-07-29T13:08:22.317Z,2.80
2022-07-29T13:10:51.108Z,2.80
2022-07-29T13:13:19.141Z,2.70
2022-07-29T13:16:06.922Z,2.40
2022-07-29T13:18:37.500Z,2.30
2022-07-29T13:21:13.726Z,2.38
2022-07-29T13:23:42.105Z,2.50
2022-07-29T13:26:11.244Z,2.17
2022-07-29T13:28:40.988Z,2.40
2022-07-29T13:31:14.116Z,2.10
2022-07-29T13:33:42.125Z,2.00
2022-07-29T13:36:10.416Z,2.15
2022-07-29T13:38:38.412Z,2.15
2022-07-29T13:41:06.474Z,2.28
2022-07-29T13:43:34.532Z,2.22
2022-07-29T13:46:02.628Z,2.50
2022-07-29T13:48:32.020Z,2.28
2022-07-29T13:50:59.967Z,2.35
2022-07-29T13:53:28.872Z,2.28
2022-07-29T13:55:57.063Z,2.60
2022-07-29T13:58:25.288Z,2.15
2022-07-29T14:00:53.365Z,2.33
2022-07-29T14:03:21.447Z,2.33
2022-07-29T14:05:50.790Z,2.28
2022-07-29T14:08:18.913Z,2.47
2022-07-29T14:10:47.071Z,2.42
2022-07-29T14:13:24.612Z,2.40
2022-07-29T14:15:53.829Z,2.28
2022-07-29T14:18:21.719Z,2.58
2022-07-29T14:20:52.098Z,2.05
2022-07-29T14:23:20.539Z,2.20
2022-07-29T14:25:49.412Z,2.22
2022-07-29T14:28:17.846Z,2.10
2022-07-29T14:30:46.164Z,2.13
2022-07-29T14:33:14.281Z,2.05
2022-07-29T14:35:42.285Z,2.35
2022-07-29T14:38:11.740Z,2.55
2022-07-29T14:40:39.992Z,2.45
2022-07-29T14:43:08.196Z,3.10
2022-07-29T14:45:36.430Z,2.97
2022-07-29T14:48:04.578Z,3.00
2022-07-29T14:50:32.537Z,2.80
2022-07-29T14:53:00.789Z,2.65
2022-07-29T14:55:30.579Z,2.60
2022-07-29T14:58:08.677Z,2.60
2022-07-29T15:00:38.713Z,2.53
2022-07-29T15:03:07.027Z,2.42
2022-07-29T15:05:39.879Z,2.42
2022-07-29T15:08:09.069Z,2.47
2022-07-29T15:10:38.768Z,2.25
2022-07-29T15:13:07.090Z,2.10
2022-07-29T15:15:35.202Z,2.60
2022-07-29T15:18:03.147Z,2.40
2022-07-29T15:20:31.280Z,2.35
2022-07-29T15:22:59.206Z,2.65
2022-07-29T15:25:28.059Z,2.40
2022-07-29T15:28:01.193Z,2.38
2022-07-29T15:30:33.517Z,2.58
2022-07-29T15:33:02.834Z,2.20
2022-07-29T15:35:31.304Z,2.30
2022-07-29T15:37:59.333Z,2.58
2022-07-29T15:40:27.332Z,2.65
2022-07-29T15:42:55.406Z,2.55
2022-07-29T15:45:25.081Z,2.35
2022-07-29T15:47:53.107Z,2.20
2022-07-29T15:50:21.207Z,2.03
2022-07-29T15:52:49.204Z,2.35
2022-07-29T15:55:17.220Z,2.10
2022-07-29T15:57:45.241Z,2.17
2022-07-29T16:00:14.134Z,2.55
2022-07-29T16:02:43.522Z,2.17
2022-07-29T16:05:11.790Z,2.20
2022-07-29T16:07:39.805Z,2.15
2022-07-29T16:10:08.267Z,2.35
2022-07-29T16:12:36.283Z,2.80
2022-07-29T16:15:09.417Z,2.47
2022-07-29T16:17:38.177Z,2.25
2022-07-29T16:20:09.241Z,2.05
2022-07-29T16:22:38.661Z,2.22
2022-07-29T16:25:07.634Z,2.50
2022-07-29T16:27:37.922Z,2.58
2022-07-29T16:30:09.702Z,2.78
2022-07-29T16:32:37.962Z,2.75
2022-07-29T16:35:08.466Z,2.40
2022-07-29T16:37:37.248Z,2.20
2022-07-29T16:40:07.438Z,2.05
2022-07-29T16:42:47.762Z,2.13
2022-07-29T16:45:16.699Z,2.05
2022-07-29T16:47:46.109Z,1.83
2022-07-29T16:50:15.400Z,1.75
2022-07-29T16:52:43.414Z,1.90
2022-07-29T16:55:11.534Z,1.88
2022-07-29T16:57:39.520Z,1.70
2022-07-29T17:00:08.713Z,1.73
2022-07-29T17:02:38.671Z,1.75
2022-07-29T17:05:07.997Z,1.85
2022-07-29T17:07:37.481Z,1.80
2022-07-29T17:10:08.135Z,2.00
2022-07-29T17:12:37.454Z,1.80
2022-07-29T17:15:06.094Z,1.80
2022-07-29T17:17:39.115Z,1.90
2022-07-29T17:20:22.159Z,1.92
2022-07-29T17:22:51.630Z,2.15
2022-07-29T17:25:21.110Z,1.88
2022-07-29T17:27:50.497Z,2.05
2022-07-29T17:30:19.430Z,2.20
2022-07-29T17:32:47.399Z,2.30
2022-07-29T17:35:33.045Z,2.20
2022-07-29T17:38:02.499Z,2.00
2022-07-29T17:40:30.434Z,2.05
2022-07-29T17:42:58.408Z,2.20
2022-07-29T17:45:26.330Z,2.30
2022-07-29T17:48:14.403Z,1.98
2022-07-29T17:50:42.458Z,2.10
2022-07-29T17:53:16.039Z,2.20
2022-07-29T17:55:45.802Z,2.05
2022-07-29T17:58:13.818Z,1.90
2022-07-29T18:00:41.943Z,2.00
2022-07-29T18:03:10.262Z,2.33
2022-07-29T18:05:38.405Z,2.15
2022-07-29T18:08:06.569Z,2.03
2022-07-29T18:10:36.255Z,2.00
2022-07-29T18:13:05.110Z,1.98
2022-07-29T18:15:35.003Z,1.90
2022-07-29T18:18:03.042Z,2.00
2022-07-29T18:20:31.158Z,2.20
2022-07-29T18:22:59.229Z,2.03
2022-07-29T18:25:29.052Z,1.73
2022-07-29T18:28:00.519Z,2.00
2022-07-29T18:30:29.078Z,1.90
2022-07-29T18:33:19.774Z,1.70
2022-07-29T18:35:45.084Z,1.90
2022-07-29T18:38:13.076Z,1.73
2022-07-29T18:40:42.051Z,2.22
2022-07-29T18:43:11.436Z,1.92
2022-07-29T18:45:39.809Z,1.92
2022-07-29T18:48:12.749Z,2.00
2022-07-29T18:50:41.163Z,1.70
2022-07-29T18:53:09.443Z,1.95
2022-07-29T18:55:37.458Z,2.00
2022-07-29T18:58:05.467Z,2.13
2022-07-29T19:00:35.385Z,2.28
2022-07-29T19:03:04.337Z,2.08
2022-07-29T19:05:32.707Z,1.92
2022-07-29T19:08:00.793Z,1.95
2022-07-29T19:10:28.756Z,2.10
2022-07-29T19:12:57.844Z,2.03
2022-07-29T19:15:25.866Z,2.20
2022-07-29T19:17:59.153Z,2.47
2022-07-29T19:20:29.505Z,1.90
2022-07-29T19:22:57.458Z,2.30
2022-07-29T19:25:25.514Z,2.28
2022-07-29T19:27:53.635Z,2.40
2022-07-29T19:30:21.734Z,2.47
2022-07-29T19:32:49.738Z,2.20
2022-07-29T19:35:25.251Z,2.30
2022-07-29T19:37:53.753Z,2.20
2022-07-29T19:40:22.005Z,2.20
2022-07-29T19:42:51.726Z,2.22
2022-07-29T19:45:21.539Z,2.25
2022-07-29T19:47:50.045Z,2.40
2022-07-29T19:50:19.473Z,2.42
2022-07-29T19:52:48.166Z,2.40
2022-07-29T19:55:16.528Z,2.40
2022-07-29T19:57:47.050Z,2.78
2022-07-29T20:00:17.423Z,2.50
2022-07-29T20:02:49.114Z,2.60
2022-07-29T20:05:17.194Z,2.63
2022-07-29T20:07:47.806Z,2.33
2022-07-29T20:10:15.910Z,2.55
2022-07-29T20:12:43.868Z,2.83
2022-07-29T20:15:16.409Z,2.83
2022-07-29T20:17:44.846Z,2.63
2022-07-29T20:20:13.285Z,2.63
2022-07-29T20:22:41.331Z,2.60
2022-07-29T20:25:11.968Z,2.70
2022-07-29T20:27:40.627Z,2.63
2022-07-29T20:30:13.335Z,2.67
2022-07-29T20:32:42.461Z,2.65
2022-07-29T20:35:12.095Z,2.42
2022-07-29T20:37:55.673Z,2.75
2022-07-29T20:40:26.462Z,2.88
2022-07-29T20:42:54.777Z,2.78
2022-07-29T20:45:23.801Z,3.10
2022-07-29T20:47:52.788Z,3.42
2022-07-29T20:50:23.631Z,2.90
2022-07-29T20:52:52.423Z,3.00
2022-07-29T20:55:20.514Z,3.00
2022-07-29T20:57:49.887Z,2.65
2022-07-29T21:00:18.081Z,3.00
2022-07-29T21:02:46.125Z,3.03
2022-07-29T21:05:14.140Z,3.05
2022-07-29T21:07:42.135Z,3.38
2022-07-29T21:10:10.186Z,3.28
2022-07-29T21:12:38.829Z,3.20
2022-07-29T21:15:13.322Z,3.15
2022-07-29T21:17:46.778Z,3.17
2022-07-29T21:20:15.973Z,3.10
2022-07-29T21:22:44.521Z,2.92
2022-07-29T21:25:12.974Z,3.38
2022-07-29T21:27:58.217Z,3.17
2022-07-29T21:30:28.482Z,3.10
2022-07-29T21:32:56.509Z,2.97
2022-07-29T21:36:01.996Z,3.08
2022-07-29T21:38:13.108Z,3.10
2022-07-29T21:40:41.283Z,2.70
2022-07-29T21:43:09.365Z,3.22
2022-07-29T21:45:39.392Z,3.13
2022-07-29T21:48:08.240Z,2.92
2022-07-29T21:50:37.079Z,3.20
2022-07-29T21:53:05.160Z,3.00
2022-07-29T21:55:33.785Z,2.70
2022-07-29T21:58:01.907Z,2.45
2022-07-29T22:00:31.120Z,3.05
2022-07-29T22:03:01.242Z,3.03
2022-07-29T22:05:29.441Z,3.20
2022-07-29T22:07:58.038Z,3.40
2022-07-29T22:10:26.968Z,3.00
2022-07-29T22:12:56.477Z,3.17
2022-07-29T22:15:25.302Z,3.65
2022-07-29T22:17:53.414Z,3.17
2022-07-29T22:20:22.968Z,3.58
2022-07-29T22:22:51.172Z,3.30
2022-07-29T22:25:19.352Z,3.05
2022-07-29T22:27:47.409Z,3.30
2022-07-29T22:30:16.004Z,3.50
2022-07-29T22:32:44.109Z,3.30
2022-07-29T22:35:12.359Z,3.47
2022-07-29T22:37:41.988Z,3.28
2022-07-29T22:40:10.535Z,3.35
2022-07-29T22:42:40.877Z,3.17
2022-07-29T22:45:10.850Z,3.50
2022-07-29T22:47:48.439Z,3.28
2022-07-29T22:50:17.673Z,3.42
2022-07-29T22:52:47.108Z,3.22
2022-07-29T22:55:15.943Z,4.10
2022-07-29T22:57:43.999Z,3.25
2022-07-29T23:00:13.559Z,3.30
2022-07-29T23:02:41.741Z,4.03
2022-07-29T23:05:11.320Z,4.10
2022-07-29T23:07:39.314Z,4.40
2022-07-29T23:10:10.049Z,4.68
2022-07-29T23:12:38.144Z,4.30
2022-07-29T23:15:06.536Z,3.97
2022-07-29T23:17:36.458Z,3.88
2022-07-29T23:20:07.500Z,3.42
2022-07-29T23:22:35.572Z,3.90
2022-07-29T23:25:03.575Z,4.15
2022-07-29T23:27:33.149Z,3.88
2022-07-29T23:30:01.111Z,4.22
2022-07-29T23:32:29.135Z,3.95
2022-07-29T23:34:57.092Z,4.05
2022-07-29T23:37:26.969Z,3.78
2022-07-29T23:39:55.299Z,3.90
2022-07-29T23:42:23.502Z,3.58
2022-07-29T23:44:53.055Z,3.40
2022-07-29T23:47:21.015Z,3.75
2022-07-29T23:49:50.084Z,3.90
2022-07-29T23:52:18.426Z,4.10
2022-07-29T23:54:46.347Z,4.20
2022-07-29T23:57:14.678Z,4.22
2022-07-29T23:59:42.640Z,4.25
